Harrisville, MI (48740)

4:23 AM EDT on September 03, 2015 (GMT -0400)
Oscoda-Wurtsmith | | Change Station
CLOSE
Current Station
Airport
Location: Oscoda,
Elevation: 633 ft
Nearby Weather Stations

Elev 633 ft 44.45 °N, 83.39 °W | Updated 10 minutes ago

Partly Cloudy
Partly Cloudy
65 °F
Feels Like 65 °F
N
0
Wind Variable Wind from North

Today
High -- | Low -- °F
--% Chance of Precip.
Yesterday
High -- | Low -- °F
Precip. -- in
6:57 AM 8:06 PM
Waning Gibbous, 72% visible
Pressure 29.95 in
Visibility 5.0 miles
Clouds Clear
Dew Point 65 °F
Humidity 99%
Rainfall 0.00 in
Snow Depth Not available.
UV 0 out of 12
Pollen 10.20 out of 12
Air Quality Not available.
Flu Activity Not available.
METAR KOSC 030813Z AUTO 00000KT 5SM BR CLR 19/18 A2995 RMK AO2 T01850183
Pressure 29.95 in
Visibility 5.0 miles
Clouds Clear
Dew Point 65 °F
Humidity 99%
Rainfall 0.00 in
Snow Depth Not available.
UV 0 out of 12
Pollen 10.20 out of 12
Air Quality Not available.
Flu Activity Not available.
METAR KOSC 030813Z AUTO 00000KT 5SM BR CLR 19/18 A2995 RMK AO2 T01850183
Nowcast | as of 4:00 am EDT on September 3, 2015

At 5 am...mostly cloudy. Chance of showers. Temperature 66. Light winds. At 7 am...mostly cloudy. Chance of showers. Temperature 65. Light winds. At 9 am...mostly cloudy. Areas of fog. Chance of thunderstorms. Temperature 67. Light winds. At 11 am...mostly cloudy. Areas of fog. Chance of thunderstorms. Temperature 72. South winds 6 mph.

×

10-Day Weather Forecast

×

Almanac

Astronomy

Sep. 03, 2015 Rise Set
Actual Time
Civil Twilight
Nautical Twilight
Astronomical Twilight
Moon
Length of Visible Light
Length of Day
Tomorrow will be .
, % of the Moon is Illuminated

Today's Extremes

State Highs State Lows

Community

WunderPhotos

Upload Photos

1,851,919 photos uploaded!

WunderBlogs® & News

Nearby

Air Quality

  Air Quality AQ Index Pollutant
Not available.

Snow Depth

Station Depth Elevation

Earthquake Activity

City Distance Mag. Time & Date
Minimum magnitude displayed is 2.5.

Coastal Water Temperatures

Place Temperature

Stations

Nearby Weather Stations

Station Location Temp. Windchill Dew Point Humidity Wind Precip. Elev Updated Type